Sunflower Gold — JD2460 — position and weather

sailwx.info

Track history (hours):
 
Tides and Currents Weather Stations Pressure Air Temp Water Temp Dewpoint Dewpoint Depression Visibility Wind Speed Wind Dir Waves Ship Positions

Sunflower Gold

Last reported at 2015-Feb-02 01:33 UTC. Time now 2015-Feb-02 01:49 UTC.
Position N 34°42' E 135°17'.

Length 166 m; draft 5.8 m.

Type: Passenger vessel. MMSI: 431000331.

Date/timePositionNaut miles runAvg speedWind from/ knotsBaromVisibWave heightAir tempDewpointWater temp
2015-Feb-02 01:33N 34°42' E 135°17'0 0.0
2015-Feb-02 00:32N 34°42' E 135°17'0 0.0
2015-Feb-01 23:32N 34°42' E 135°17'0 0.0
2015-Feb-01 22:32N 34°42' E 135°17'0 0.0
2015-Feb-01 21:33N 34°42' E 135°17'1312.9
2015-Feb-01 20:33N 34°35' E 135°04'2219.2
2015-Feb-01 19:24N 34°28' E 134°38'16 0.5
2015-Jan-31 12:06N 34°36' E 134°55'1018.2
2015-Jan-31 11:33N 34°36' E 135°07'1010.2
2015-Jan-31 10:33N 34°42' E 135°17'0 0.0
2015-Jan-31 09:29N 34°42' E 135°17'0 0.0
2015-Jan-31 08:29N 34°42' E 135°17'0 0.0
2015-Jan-31 07:29N 34°42' E 135°17'0 0.0
2015-Jan-31 06:29N 34°42' E 135°17'0 0.0
2015-Jan-31 05:29N 34°42' E 135°17'0 0.0
2015-Jan-31 04:29N 34°42' E 135°17'0 0.0
2015-Jan-31 03:29N 34°42' E 135°17'0 0.0
2015-Jan-31 02:29N 34°42' E 135°17'0 0.0
2015-Jan-31 01:29N 34°42' E 135°17'0 0.0
2015-Jan-31 00:29N 34°42' E 135°17'0 0.0
2015-Jan-30 23:29N 34°42' E 135°17'2 1.8
2015-Jan-30 22:33N 34°41' E 135°18'1413.9
2015-Jan-30 21:33N 34°36' E 135°03'1816.9
2015-Jan-30 20:30N 34°30' E 134°42'9 0.3
2015-Jan-29 11:20N 34°35' E 134°51'1519.7
2015-Jan-29 10:33N 34°37' E 135°10'8 7.6
2015-Jan-29 09:31N 34°42' E 135°17'0 0.0
2015-Jan-29 08:25N 34°42' E 135°17'0 0.0
2015-Jan-29 07:25N 34°42' E 135°17'0 0.0
2015-Jan-29 06:31N 34°42' E 135°17'0 0.0
2015-Jan-29 05:31N 34°42' E 135°17'0 0.0
2015-Jan-29 04:13N 34°42' E 135°17'0 0.0
2015-Jan-29 03:31N 34°42' E 135°17'0 0.0
2015-Jan-29 02:25N 34°42' E 135°17'0 0.0
2015-Jan-29 01:25N 34°42' E 135°17'0 0.0
2015-Jan-29 00:31N 34°42' E 135°17'0 0.0
2015-Jan-28 23:19N 34°42' E 135°17'0 0.0
2015-Jan-28 22:31N 34°42' E 135°17'0 0.0
2015-Jan-28 21:33N 34°42' E 135°17'1313.3
2015-Jan-28 20:33N 34°36' E 135°03'8 0.2
2015-Jan-27 11:24N 34°36' E 134°54'1517.9
2015-Jan-27 10:33N 34°36' E 135°12'7 6.4
2015-Jan-27 09:29N 34°42' E 135°17'0 0.0
2015-Jan-27 08:29N 34°42' E 135°17'0 0.0
2015-Jan-27 07:29N 34°42' E 135°17'0 0.0
2015-Jan-27 06:29N 34°42' E 135°17'0 0.0
2015-Jan-27 05:29N 34°42' E 135°17'0 0.0
2015-Jan-27 04:29N 34°42' E 135°17'0 0.0
2015-Jan-27 03:29N 34°42' E 135°17'0 0.0
2015-Jan-27 02:23N 34°42' E 135°17'0 0.0
2015-Jan-27 01:29N 34°42' E 135°17'0 0.0
2015-Jan-27 00:29N 34°42' E 135°17'0 0.0
2015-Jan-26 23:29N 34°42' E 135°17'0 0.0
2015-Jan-26 22:17N 34°42' E 135°17'0 0.1
2015-Jan-26 21:33N 34°42' E 135°17'1313.2
2015-Jan-26 20:33N 34°36' E 135°03'2019.6
2015-Jan-26 19:33N 34°29' E 134°40'11 0.3
2015-Jan-25 11:25N 34°35' E 134°52'1619.1
2015-Jan-25 10:33N 34°36' E 135°12'7 7.0
2015-Jan-25 09:32N 34°42' E 135°17'0 0.0
2015-Jan-25 08:32N 34°42' E 135°17'0 0.0
2015-Jan-25 07:20N 34°42' E 135°17'0 0.0
2015-Jan-25 06:14N 34°42' E 135°17'0 0.0
2015-Jan-25 05:32N 34°42' E 135°17'0 0.0
2015-Jan-25 04:26N 34°42' E 135°17'0 0.0
2015-Jan-25 03:32N 34°42' E 135°17'0 0.0
2015-Jan-25 02:26N 34°42' E 135°17'0 0.0
2015-Jan-25 01:32N 34°42' E 135°17'0 0.0
2015-Jan-25 00:32N 34°42' E 135°17'0 0.0
2015-Jan-24 23:20N 34°42' E 135°17'2 3.0
2015-Jan-24 22:33N 34°40' E 135°19'1514.9
2015-Jan-24 21:33N 34°37' E 135°01'7 0.2
2015-Jan-23 12:12N 34°35' E 134°52'1319.8
2015-Jan-23 11:33N 34°36' E 135°07'10 9.6
2015-Jan-23 10:33N 34°42' E 135°17'0 0.0
2015-Jan-23 09:29N 34°42' E 135°17'0 0.0
2015-Jan-23 08:26N 34°42' E 135°17'0 0.0
2015-Jan-23 07:32N 34°42' E 135°17'0 0.0
2015-Jan-23 06:32N 34°42' E 135°17'0 0.0
2015-Jan-23 05:32N 34°42' E 135°17'0 0.0
2015-Jan-23 04:32N 34°42' E 135°17'0 0.0
2015-Jan-23 03:26N 34°42' E 135°17'0 0.0
2015-Jan-23 02:20N 34°42' E 135°17'  
Track history (hours):
 
Tides and Currents Weather Stations Pressure Air Temp Water Temp Dewpoint Dewpoint Depression Visibility Wind Speed Wind Dir Waves Ship Positions

Sunflower Gold

Last reported at 2015-Feb-02 01:33 UTC. Time now 2015-Feb-02 01:49 UTC.
Position N 34°42' E 135°17'.

Length 166 m; draft 5.8 m.

Type: Passenger vessel. MMSI: 431000331.

Date/timePositionNaut miles runAvg speedWind from/ knotsBaromVisibWave heightAir tempDewpointWater temp
2015-Feb-02 01:33N 34°42' E 135°17'0 0.0
2015-Feb-02 00:32N 34°42' E 135°17'0 0.0
2015-Feb-01 23:32N 34°42' E 135°17'0 0.0
2015-Feb-01 22:32N 34°42' E 135°17'0 0.0
2015-Feb-01 21:33N 34°42' E 135°17'1312.9
2015-Feb-01 20:33N 34°35' E 135°04'2219.2
2015-Feb-01 19:24N 34°28' E 134°38'16 0.5
2015-Jan-31 12:06N 34°36' E 134°55'1018.2
2015-Jan-31 11:33N 34°36' E 135°07'1010.2
2015-Jan-31 10:33N 34°42' E 135°17'0 0.0
2015-Jan-31 09:29N 34°42' E 135°17'0 0.0
2015-Jan-31 08:29N 34°42' E 135°17'0 0.0
2015-Jan-31 07:29N 34°42' E 135°17'0 0.0
2015-Jan-31 06:29N 34°42' E 135°17'0 0.0
2015-Jan-31 05:29N 34°42' E 135°17'0 0.0
2015-Jan-31 04:29N 34°42' E 135°17'0 0.0
2015-Jan-31 03:29N 34°42' E 135°17'0 0.0
2015-Jan-31 02:29N 34°42' E 135°17'0 0.0
2015-Jan-31 01:29N 34°42' E 135°17'0 0.0
2015-Jan-31 00:29N 34°42' E 135°17'0 0.0
2015-Jan-30 23:29N 34°42' E 135°17'2 1.8
2015-Jan-30 22:33N 34°41' E 135°18'1413.9
2015-Jan-30 21:33N 34°36' E 135°03'1816.9
2015-Jan-30 20:30N 34°30' E 134°42'9 0.3
2015-Jan-29 11:20N 34°35' E 134°51'1519.7
2015-Jan-29 10:33N 34°37' E 135°10'8 7.6
2015-Jan-29 09:31N 34°42' E 135°17'0 0.0
2015-Jan-29 08:25N 34°42' E 135°17'0 0.0
2015-Jan-29 07:25N 34°42' E 135°17'0 0.0
2015-Jan-29 06:31N 34°42' E 135°17'0 0.0
2015-Jan-29 05:31N 34°42' E 135°17'0 0.0
2015-Jan-29 04:13N 34°42' E 135°17'0 0.0
2015-Jan-29 03:31N 34°42' E 135°17'0 0.0
2015-Jan-29 02:25N 34°42' E 135°17'0 0.0
2015-Jan-29 01:25N 34°42' E 135°17'0 0.0
2015-Jan-29 00:31N 34°42' E 135°17'0 0.0
2015-Jan-28 23:19N 34°42' E 135°17'0 0.0
2015-Jan-28 22:31N 34°42' E 135°17'0 0.0
2015-Jan-28 21:33N 34°42' E 135°17'1313.3
2015-Jan-28 20:33N 34°36' E 135°03'8 0.2
2015-Jan-27 11:24N 34°36' E 134°54'1517.9
2015-Jan-27 10:33N 34°36' E 135°12'7 6.4
2015-Jan-27 09:29N 34°42' E 135°17'0 0.0
2015-Jan-27 08:29N 34°42' E 135°17'0 0.0
2015-Jan-27 07:29N 34°42' E 135°17'0 0.0
2015-Jan-27 06:29N 34°42' E 135°17'0 0.0
2015-Jan-27 05:29N 34°42' E 135°17'0 0.0
2015-Jan-27 04:29N 34°42' E 135°17'0 0.0
2015-Jan-27 03:29N 34°42' E 135°17'0 0.0
2015-Jan-27 02:23N 34°42' E 135°17'0 0.0
2015-Jan-27 01:29N 34°42' E 135°17'0 0.0
2015-Jan-27 00:29N 34°42' E 135°17'0 0.0
2015-Jan-26 23:29N 34°42' E 135°17'0 0.0
2015-Jan-26 22:17N 34°42' E 135°17'0 0.1
2015-Jan-26 21:33N 34°42' E 135°17'1313.2
2015-Jan-26 20:33N 34°36' E 135°03'2019.6
2015-Jan-26 19:33N 34°29' E 134°40'11 0.3
2015-Jan-25 11:25N 34°35' E 134°52'1619.1
2015-Jan-25 10:33N 34°36' E 135°12'7 7.0
2015-Jan-25 09:32N 34°42' E 135°17'0 0.0
2015-Jan-25 08:32N 34°42' E 135°17'0 0.0
2015-Jan-25 07:20N 34°42' E 135°17'0 0.0
2015-Jan-25 06:14N 34°42' E 135°17'0 0.0
2015-Jan-25 05:32N 34°42' E 135°17'0 0.0
2015-Jan-25 04:26N 34°42' E 135°17'0 0.0
2015-Jan-25 03:32N 34°42' E 135°17'0 0.0
2015-Jan-25 02:26N 34°42' E 135°17'0 0.0
2015-Jan-25 01:32N 34°42' E 135°17'0 0.0
2015-Jan-25 00:32N 34°42' E 135°17'0 0.0
2015-Jan-24 23:20N 34°42' E 135°17'2 3.0
2015-Jan-24 22:33N 34°40' E 135°19'1514.9
2015-Jan-24 21:33N 34°37' E 135°01'7 0.2
2015-Jan-23 12:12N 34°35' E 134°52'1319.8
2015-Jan-23 11:33N 34°36' E 135°07'10 9.6
2015-Jan-23 10:33N 34°42' E 135°17'0 0.0
2015-Jan-23 09:29N 34°42' E 135°17'0 0.0
2015-Jan-23 08:26N 34°42' E 135°17'0 0.0
2015-Jan-23 07:32N 34°42' E 135°17'0 0.0
2015-Jan-23 06:32N 34°42' E 135°17'0 0.0
2015-Jan-23 05:32N 34°42' E 135°17'0 0.0
2015-Jan-23 04:32N 34°42' E 135°17'0 0.0
2015-Jan-23 03:26N 34°42' E 135°17'0 0.0
2015-Jan-23 02:20N 34°42' E 135°17'  

Dump ship's entire track history